sensor_id;sensor_type;location;lat;lon;timestamp;P1;durP1;ratioP1;P2;durP2;ratioP2
16472;SDS011;8347;52.486;13.432;2023-02-28T00:01:48;8.43;;;3.40;;
16472;SDS011;8347;52.486;13.432;2023-02-28T00:04:35;7.15;;;3.97;;
16472;SDS011;8347;52.486;13.432;2023-02-28T00:07:22;7.68;;;3.30;;
16472;SDS011;8347;52.486;13.432;2023-02-28T00:10:12;6.00;;;3.28;;
16472;SDS011;8347;52.486;13.432;2023-02-28T00:13:03;8.27;;;3.42;;
16472;SDS011;8347;52.486;13.432;2023-02-28T00:15:58;6.03;;;2.75;;
16472;SDS011;8347;52.486;13.432;2023-02-28T00:18:49;12.75;;;3.50;;
16472;SDS011;8347;52.486;13.432;2023-02-28T00:21:35;10.77;;;3.38;;
16472;SDS011;8347;52.486;13.432;2023-02-28T00:24:22;11.73;;;4.03;;
16472;SDS011;8347;52.486;13.432;2023-02-28T00:27:09;6.60;;;3.33;;
16472;SDS011;8347;52.486;13.432;2023-02-28T00:29:56;5.32;;;3.28;;
16472;SDS011;8347;52.486;13.432;2023-02-28T00:32:42;7.55;;;3.15;;
16472;SDS011;8347;52.486;13.432;2023-02-28T00:35:29;5.75;;;3.00;;
16472;SDS011;8347;52.486;13.432;2023-02-28T00:38:15;4.80;;;3.25;;
16472;SDS011;8347;52.486;13.432;2023-02-28T00:41:02;7.63;;;2.97;;
16472;SDS011;8347;52.486;13.432;2023-02-28T00:43:50;7.45;;;3.20;;
16472;SDS011;8347;52.486;13.432;2023-02-28T00:46:36;6.07;;;3.05;;
16472;SDS011;8347;52.486;13.432;2023-02-28T00:49:23;10.15;;;4.38;;
16472;SDS011;8347;52.486;13.432;2023-02-28T00:52:10;4.72;;;2.60;;
16472;SDS011;8347;52.486;13.432;2023-02-28T00:54:56;6.75;;;3.30;;
16472;SDS011;8347;52.486;13.432;2023-02-28T00:57:43;4.75;;;2.88;;
16472;SDS011;8347;52.486;13.432;2023-02-28T01:00:30;5.63;;;2.95;;
16472;SDS011;8347;52.486;13.432;2023-02-28T01:03:17;5.72;;;2.72;;
16472;SDS011;8347;52.486;13.432;2023-02-28T01:06:04;4.22;;;2.90;;
16472;SDS011;8347;52.486;13.432;2023-02-28T01:08:51;9.27;;;4.00;;
16472;SDS011;8347;52.486;13.432;2023-02-28T01:11:38;7.50;;;3.00;;
16472;SDS011;8347;52.486;13.432;2023-02-28T01:14:27;7.10;;;3.63;;
16472;SDS011;8347;52.486;13.432;2023-02-28T01:17:13;5.63;;;3.15;;
16472;SDS011;8347;52.486;13.432;2023-02-28T01:20:00;6.13;;;3.45;;
16472;SDS011;8347;52.486;13.432;2023-02-28T01:22:46;6.82;;;4.22;;
16472;SDS011;8347;52.486;13.432;2023-02-28T01:25:36;10.32;;;3.97;;
16472;SDS011;8347;52.486;13.432;2023-02-28T01:28:24;9.15;;;4.68;;
16472;SDS011;8347;52.486;13.432;2023-02-28T01:31:10;9.07;;;3.72;;
16472;SDS011;8347;52.486;13.432;2023-02-28T01:33:57;5.47;;;3.42;;
16472;SDS011;8347;52.486;13.432;2023-02-28T01:36:47;10.07;;;4.32;;
16472;SDS011;8347;52.486;13.432;2023-02-28T01:39:34;8.27;;;4.05;;
16472;SDS011;8347;52.486;13.432;2023-02-28T01:42:22;5.80;;;3.40;;
16472;SDS011;8347;52.486;13.432;2023-02-28T01:45:22;5.82;;;3.22;;
16472;SDS011;8347;52.486;13.432;2023-02-28T01:48:11;8.85;;;3.85;;
16472;SDS011;8347;52.486;13.432;2023-02-28T01:51:00;8.68;;;4.10;;
16472;SDS011;8347;52.486;13.432;2023-02-28T01:53:53;7.72;;;3.92;;
16472;SDS011;8347;52.486;13.432;2023-02-28T01:56:45;8.80;;;3.72;;
16472;SDS011;8347;52.486;13.432;2023-02-28T01:59:37;16.80;;;7.38;;
16472;SDS011;8347;52.486;13.432;2023-02-28T02:02:26;7.32;;;3.55;;
16472;SDS011;8347;52.486;13.432;2023-02-28T02:05:18;7.50;;;3.65;;
16472;SDS011;8347;52.486;13.432;2023-02-28T02:08:10;6.75;;;3.80;;
16472;SDS011;8347;52.486;13.432;2023-02-28T02:10:59;10.10;;;3.53;;
16472;SDS011;8347;52.486;13.432;2023-02-28T02:13:53;5.78;;;3.45;;
16472;SDS011;8347;52.486;13.432;2023-02-28T02:17:04;7.85;;;3.28;;
16472;SDS011;8347;52.486;13.432;2023-02-28T02:23:01;6.90;;;3.45;;
16472;SDS011;8347;52.486;13.432;2023-02-28T02:35:37;9.02;;;4.55;;
16472;SDS011;8347;52.486;13.432;2023-02-28T02:38:29;8.50;;;3.90;;
16472;SDS011;8347;52.486;13.432;2023-02-28T02:41:33;8.20;;;3.55;;
16472;SDS011;8347;52.486;13.432;2023-02-28T02:44:27;7.38;;;4.18;;
16472;SDS011;8347;52.486;13.432;2023-02-28T02:47:17;7.57;;;4.30;;
16472;SDS011;8347;52.486;13.432;2023-02-28T02:50:07;7.07;;;4.10;;
16472;SDS011;8347;52.486;13.432;2023-02-28T02:52:55;8.80;;;4.05;;
16472;SDS011;8347;52.486;13.432;2023-02-28T02:55:43;7.18;;;3.95;;
16472;SDS011;8347;52.486;13.432;2023-02-28T02:58:32;8.68;;;4.20;;
16472;SDS011;8347;52.486;13.432;2023-02-28T03:01:29;8.05;;;4.93;;
16472;SDS011;8347;52.486;13.432;2023-02-28T03:04:18;7.32;;;5.40;;
16472;SDS011;8347;52.486;13.432;2023-02-28T03:07:06;6.43;;;3.72;;
16472;SDS011;8347;52.486;13.432;2023-02-28T03:09:53;9.07;;;3.78;;
16472;SDS011;8347;52.486;13.432;2023-02-28T03:12:43;5.97;;;4.07;;
16472;SDS011;8347;52.486;13.432;2023-02-28T03:18:44;7.93;;;4.40;;
16472;SDS011;8347;52.486;13.432;2023-02-28T03:21:39;7.07;;;3.45;;
16472;SDS011;8347;52.486;13.432;2023-02-28T03:24:49;8.63;;;4.28;;
16472;SDS011;8347;52.486;13.432;2023-02-28T03:30:27;10.25;;;4.38;;
16472;SDS011;8347;52.486;13.432;2023-02-28T03:33:21;6.95;;;4.07;;
16472;SDS011;8347;52.486;13.432;2023-02-28T03:36:27;6.28;;;3.78;;
16472;SDS011;8347;52.486;13.432;2023-02-28T03:39:27;7.05;;;4.03;;
16472;SDS011;8347;52.486;13.432;2023-02-28T03:42:15;9.15;;;3.97;;
16472;SDS011;8347;52.486;13.432;2023-02-28T03:45:10;10.35;;;4.25;;
16472;SDS011;8347;52.486;13.432;2023-02-28T03:48:02;10.50;;;4.72;;
16472;SDS011;8347;52.486;13.432;2023-02-28T03:50:51;6.90;;;3.60;;
16472;SDS011;8347;52.486;13.432;2023-02-28T03:53:44;7.00;;;4.30;;
16472;SDS011;8347;52.486;13.432;2023-02-28T03:56:35;10.38;;;4.18;;
16472;SDS011;8347;52.486;13.432;2023-02-28T03:59:26;9.48;;;4.00;;
16472;SDS011;8347;52.486;13.432;2023-02-28T04:02:20;9.38;;;4.78;;
16472;SDS011;8347;52.486;13.432;2023-02-28T04:05:07;10.23;;;4.32;;
16472;SDS011;8347;52.486;13.432;2023-02-28T04:07:54;9.63;;;4.47;;
16472;SDS011;8347;52.486;13.432;2023-02-28T04:10:54;8.98;;;4.63;;
16472;SDS011;8347;52.486;13.432;2023-02-28T04:13:42;6.88;;;4.07;;
16472;SDS011;8347;52.486;13.432;2023-02-28T04:16:29;8.20;;;4.68;;
16472;SDS011;8347;52.486;13.432;2023-02-28T04:19:16;9.57;;;4.63;;
16472;SDS011;8347;52.486;13.432;2023-02-28T04:22:03;7.40;;;4.47;;
16472;SDS011;8347;52.486;13.432;2023-02-28T04:24:49;12.15;;;4.82;;
16472;SDS011;8347;52.486;13.432;2023-02-28T04:27:36;9.75;;;5.60;;
16472;SDS011;8347;52.486;13.432;2023-02-28T04:30:22;8.10;;;4.38;;
16472;SDS011;8347;52.486;13.432;2023-02-28T04:33:09;9.02;;;4.82;;
16472;SDS011;8347;52.486;13.432;2023-02-28T04:36:03;8.25;;;4.55;;
16472;SDS011;8347;52.486;13.432;2023-02-28T04:38:49;11.45;;;4.75;;
16472;SDS011;8347;52.486;13.432;2023-02-28T04:41:36;9.02;;;4.40;;
16472;SDS011;8347;52.486;13.432;2023-02-28T04:44:22;8.25;;;4.80;;
16472;SDS011;8347;52.486;13.432;2023-02-28T04:47:09;9.80;;;5.22;;
16472;SDS011;8347;52.486;13.432;2023-02-28T04:49:55;7.75;;;4.72;;
16472;SDS011;8347;52.486;13.432;2023-02-28T04:52:42;10.18;;;4.43;;
16472;SDS011;8347;52.486;13.432;2023-02-28T04:55:28;13.38;;;5.45;;
16472;SDS011;8347;52.486;13.432;2023-02-28T04:58:14;8.18;;;4.55;;
16472;SDS011;8347;52.486;13.432;2023-02-28T05:01:05;7.20;;;4.30;;
16472;SDS011;8347;52.486;13.432;2023-02-28T05:03:58;7.57;;;4.22;;
16472;SDS011;8347;52.486;13.432;2023-02-28T05:06:47;9.30;;;4.00;;
16472;SDS011;8347;52.486;13.432;2023-02-28T05:09:33;7.38;;;4.47;;
16472;SDS011;8347;52.486;13.432;2023-02-28T05:12:20;7.35;;;4.88;;
16472;SDS011;8347;52.486;13.432;2023-02-28T05:15:07;11.15;;;4.95;;
16472;SDS011;8347;52.486;13.432;2023-02-28T05:17:54;10.32;;;4.80;;
16472;SDS011;8347;52.486;13.432;2023-02-28T05:20:41;8.15;;;4.57;;
16472;SDS011;8347;52.486;13.432;2023-02-28T05:23:27;10.50;;;5.20;;
16472;SDS011;8347;52.486;13.432;2023-02-28T05:26:14;9.77;;;4.82;;
16472;SDS011;8347;52.486;13.432;2023-02-28T05:29:00;7.50;;;4.53;;
16472;SDS011;8347;52.486;13.432;2023-02-28T05:31:47;10.95;;;5.05;;
16472;SDS011;8347;52.486;13.432;2023-02-28T05:34:34;7.03;;;4.55;;
16472;SDS011;8347;52.486;13.432;2023-02-28T05:37:20;10.18;;;4.63;;
16472;SDS011;8347;52.486;13.432;2023-02-28T05:40:08;9.10;;;5.22;;
16472;SDS011;8347;52.486;13.432;2023-02-28T05:42:55;9.93;;;5.55;;
16472;SDS011;8347;52.486;13.432;2023-02-28T05:45:42;7.05;;;4.75;;
16472;SDS011;8347;52.486;13.432;2023-02-28T05:48:29;9.63;;;5.40;;
16472;SDS011;8347;52.486;13.432;2023-02-28T05:51:15;9.35;;;4.75;;
16472;SDS011;8347;52.486;13.432;2023-02-28T05:54:02;8.95;;;5.03;;
16472;SDS011;8347;52.486;13.432;2023-02-28T05:56:49;7.47;;;4.50;;
16472;SDS011;8347;52.486;13.432;2023-02-28T05:59:36;10.75;;;4.78;;
16472;SDS011;8347;52.486;13.432;2023-02-28T06:02:25;8.68;;;5.32;;
16472;SDS011;8347;52.486;13.432;2023-02-28T06:05:16;7.50;;;4.72;;
16472;SDS011;8347;52.486;13.432;2023-02-28T06:08:03;7.88;;;4.65;;
16472;SDS011;8347;52.486;13.432;2023-02-28T06:10:51;9.68;;;5.03;;
16472;SDS011;8347;52.486;13.432;2023-02-28T06:13:38;10.15;;;5.35;;
16472;SDS011;8347;52.486;13.432;2023-02-28T06:16:25;14.90;;;5.43;;
16472;SDS011;8347;52.486;13.432;2023-02-28T06:19:12;8.05;;;4.88;;
16472;SDS011;8347;52.486;13.432;2023-02-28T06:21:59;12.85;;;5.28;;
16472;SDS011;8347;52.486;13.432;2023-02-28T06:24:45;9.82;;;5.53;;
16472;SDS011;8347;52.486;13.432;2023-02-28T06:27:32;8.75;;;5.53;;
16472;SDS011;8347;52.486;13.432;2023-02-28T06:30:19;10.35;;;6.53;;
16472;SDS011;8347;52.486;13.432;2023-02-28T06:33:10;13.40;;;5.68;;
16472;SDS011;8347;52.486;13.432;2023-02-28T06:35:57;8.98;;;4.93;;
16472;SDS011;8347;52.486;13.432;2023-02-28T06:38:43;10.68;;;5.45;;
16472;SDS011;8347;52.486;13.432;2023-02-28T06:41:30;9.13;;;4.90;;
16472;SDS011;8347;52.486;13.432;2023-02-28T06:44:17;12.75;;;5.25;;
16472;SDS011;8347;52.486;13.432;2023-02-28T06:47:04;11.90;;;6.40;;
16472;SDS011;8347;52.486;13.432;2023-02-28T06:49:51;9.90;;;5.35;;
16472;SDS011;8347;52.486;13.432;2023-02-28T06:52:38;12.27;;;5.68;;
16472;SDS011;8347;52.486;13.432;2023-02-28T06:55:24;7.80;;;5.10;;
16472;SDS011;8347;52.486;13.432;2023-02-28T06:58:10;10.07;;;5.45;;
16472;SDS011;8347;52.486;13.432;2023-02-28T07:01:00;10.27;;;6.38;;
16472;SDS011;8347;52.486;13.432;2023-02-28T07:03:47;11.23;;;5.82;;
16472;SDS011;8347;52.486;13.432;2023-02-28T07:06:37;9.50;;;5.05;;
16472;SDS011;8347;52.486;13.432;2023-02-28T07:09:24;8.88;;;5.00;;
16472;SDS011;8347;52.486;13.432;2023-02-28T07:12:15;9.70;;;5.10;;
16472;SDS011;8347;52.486;13.432;2023-02-28T07:15:02;7.38;;;5.00;;
16472;SDS011;8347;52.486;13.432;2023-02-28T07:17:50;12.93;;;4.70;;
16472;SDS011;8347;52.486;13.432;2023-02-28T07:20:36;8.48;;;4.80;;
16472;SDS011;8347;52.486;13.432;2023-02-28T07:23:23;18.38;;;7.40;;
16472;SDS011;8347;52.486;13.432;2023-02-28T07:26:14;13.43;;;7.22;;
16472;SDS011;8347;52.486;13.432;2023-02-28T07:29:02;12.38;;;5.78;;
16472;SDS011;8347;52.486;13.432;2023-02-28T07:31:49;8.75;;;5.07;;
16472;SDS011;8347;52.486;13.432;2023-02-28T07:34:38;10.13;;;5.32;;
16472;SDS011;8347;52.486;13.432;2023-02-28T07:37:24;10.27;;;5.53;;
16472;SDS011;8347;52.486;13.432;2023-02-28T07:40:11;10.23;;;5.45;;
16472;SDS011;8347;52.486;13.432;2023-02-28T07:42:58;8.80;;;5.20;;
16472;SDS011;8347;52.486;13.432;2023-02-28T07:45:46;10.55;;;4.75;;
16472;SDS011;8347;52.486;13.432;2023-02-28T07:48:32;10.50;;;6.38;;
16472;SDS011;8347;52.486;13.432;2023-02-28T07:51:19;10.75;;;5.50;;
16472;SDS011;8347;52.486;13.432;2023-02-28T07:54:06;8.57;;;5.35;;
16472;SDS011;8347;52.486;13.432;2023-02-28T07:56:53;7.03;;;4.70;;
16472;SDS011;8347;52.486;13.432;2023-02-28T07:59:39;9.57;;;4.47;;
16472;SDS011;8347;52.486;13.432;2023-02-28T08:02:26;12.32;;;4.60;;
16472;SDS011;8347;52.486;13.432;2023-02-28T08:05:13;8.30;;;4.07;;
16472;SDS011;8347;52.486;13.432;2023-02-28T08:07:59;18.10;;;7.78;;
16472;SDS011;8347;52.486;13.432;2023-02-28T08:10:46;11.80;;;4.90;;
16472;SDS011;8347;52.486;13.432;2023-02-28T08:13:32;8.13;;;4.78;;
16472;SDS011;8347;52.486;13.432;2023-02-28T08:16:19;9.60;;;4.68;;
16472;SDS011;8347;52.486;13.432;2023-02-28T08:19:07;6.22;;;3.80;;
16472;SDS011;8347;52.486;13.432;2023-02-28T08:21:54;11.20;;;5.75;;
16472;SDS011;8347;52.486;13.432;2023-02-28T08:24:41;12.30;;;4.30;;
16472;SDS011;8347;52.486;13.432;2023-02-28T08:27:29;13.93;;;4.80;;
16472;SDS011;8347;52.486;13.432;2023-02-28T08:30:15;9.40;;;3.83;;
16472;SDS011;8347;52.486;13.432;2023-02-28T08:33:02;7.10;;;4.18;;
16472;SDS011;8347;52.486;13.432;2023-02-28T08:35:51;8.13;;;3.47;;
16472;SDS011;8347;52.486;13.432;2023-02-28T08:38:38;10.60;;;3.97;;
16472;SDS011;8347;52.486;13.432;2023-02-28T08:41:25;6.53;;;3.25;;
16472;SDS011;8347;52.486;13.432;2023-02-28T08:44:11;4.80;;;3.40;;
16472;SDS011;8347;52.486;13.432;2023-02-28T08:46:58;3.78;;;2.65;;
16472;SDS011;8347;52.486;13.432;2023-02-28T08:49:45;5.80;;;3.58;;
16472;SDS011;8347;52.486;13.432;2023-02-28T08:52:32;3.15;;;2.45;;
16472;SDS011;8347;52.486;13.432;2023-02-28T08:55:19;2.97;;;2.17;;
16472;SDS011;8347;52.486;13.432;2023-02-28T08:58:05;5.93;;;2.45;;
16472;SDS011;8347;52.486;13.432;2023-02-28T09:00:52;5.53;;;3.08;;
16472;SDS011;8347;52.486;13.432;2023-02-28T09:03:39;6.97;;;4.32;;
16472;SDS011;8347;52.486;13.432;2023-02-28T09:06:28;4.32;;;2.33;;
16472;SDS011;8347;52.486;13.432;2023-02-28T09:09:15;4.25;;;2.78;;
16472;SDS011;8347;52.486;13.432;2023-02-28T09:12:02;2.35;;;1.95;;
16472;SDS011;8347;52.486;13.432;2023-02-28T09:14:49;3.67;;;1.85;;
16472;SDS011;8347;52.486;13.432;2023-02-28T09:17:36;2.78;;;1.98;;
16472;SDS011;8347;52.486;13.432;2023-02-28T09:20:22;3.33;;;2.08;;
16472;SDS011;8347;52.486;13.432;2023-02-28T09:23:09;2.38;;;2.08;;
16472;SDS011;8347;52.486;13.432;2023-02-28T09:25:57;3.25;;;1.70;;
16472;SDS011;8347;52.486;13.432;2023-02-28T09:28:44;3.33;;;1.80;;
16472;SDS011;8347;52.486;13.432;2023-02-28T09:31:30;8.88;;;2.30;;
16472;SDS011;8347;52.486;13.432;2023-02-28T09:34:17;2.47;;;1.92;;
16472;SDS011;8347;52.486;13.432;2023-02-28T09:37:04;5.38;;;2.38;;
16472;SDS011;8347;52.486;13.432;2023-02-28T09:39:50;4.65;;;2.03;;
16472;SDS011;8347;52.486;13.432;2023-02-28T09:42:37;4.90;;;2.15;;
16472;SDS011;8347;52.486;13.432;2023-02-28T09:45:25;3.65;;;2.03;;
16472;SDS011;8347;52.486;13.432;2023-02-28T09:48:14;6.72;;;2.30;;
16472;SDS011;8347;52.486;13.432;2023-02-28T09:51:03;4.45;;;2.05;;
16472;SDS011;8347;52.486;13.432;2023-02-28T09:53:50;2.85;;;1.83;;
16472;SDS011;8347;52.486;13.432;2023-02-28T09:56:37;3.30;;;2.00;;
16472;SDS011;8347;52.486;13.432;2023-02-28T10:05:33;2.13;;;1.30;;
16472;SDS011;8347;52.486;13.432;2023-02-28T10:08:32;3.50;;;1.23;;
16472;SDS011;8347;52.486;13.432;2023-02-28T10:11:28;3.33;;;1.45;;
16472;SDS011;8347;52.486;13.432;2023-02-28T10:14:25;2.47;;;1.45;;
16472;SDS011;8347;52.486;13.432;2023-02-28T10:20:01;6.22;;;1.65;;
16472;SDS011;8347;52.486;13.432;2023-02-28T10:25:54;2.78;;;1.90;;
16472;SDS011;8347;52.486;13.432;2023-02-28T10:28:41;4.90;;;1.90;;
16472;SDS011;8347;52.486;13.432;2023-02-28T10:31:28;3.95;;;1.83;;
16472;SDS011;8347;52.486;13.432;2023-02-28T10:34:15;2.80;;;1.60;;
16472;SDS011;8347;52.486;13.432;2023-02-28T10:37:02;4.78;;;1.75;;
16472;SDS011;8347;52.486;13.432;2023-02-28T10:39:53;2.53;;;1.30;;
16472;SDS011;8347;52.486;13.432;2023-02-28T10:42:40;4.38;;;2.15;;
16472;SDS011;8347;52.486;13.432;2023-02-28T10:45:28;4.30;;;2.08;;
16472;SDS011;8347;52.486;13.432;2023-02-28T10:51:02;4.07;;;1.73;;
16472;SDS011;8347;52.486;13.432;2023-02-28T10:53:52;5.97;;;2.55;;
16472;SDS011;8347;52.486;13.432;2023-02-28T10:56:39;2.72;;;1.83;;
16472;SDS011;8347;52.486;13.432;2023-02-28T10:59:27;3.10;;;1.63;;
16472;SDS011;8347;52.486;13.432;2023-02-28T11:02:31;1.90;;;1.63;;
16472;SDS011;8347;52.486;13.432;2023-02-28T11:05:34;3.78;;;2.38;;
16472;SDS011;8347;52.486;13.432;2023-02-28T11:08:22;3.90;;;2.13;;
16472;SDS011;8347;52.486;13.432;2023-02-28T11:11:10;5.55;;;2.33;;
16472;SDS011;8347;52.486;13.432;2023-02-28T11:13:57;7.20;;;2.17;;
16472;SDS011;8347;52.486;13.432;2023-02-28T11:16:44;4.43;;;3.08;;
16472;SDS011;8347;52.486;13.432;2023-02-28T11:19:33;4.63;;;2.72;;
16472;SDS011;8347;52.486;13.432;2023-02-28T11:22:26;3.67;;;2.13;;
16472;SDS011;8347;52.486;13.432;2023-02-28T11:25:28;5.88;;;2.45;;
16472;SDS011;8347;52.486;13.432;2023-02-28T11:33:59;6.50;;;2.70;;
16472;SDS011;8347;52.486;13.432;2023-02-28T11:36:45;4.47;;;2.63;;
16472;SDS011;8347;52.486;13.432;2023-02-28T11:39:33;3.58;;;2.13;;
16472;SDS011;8347;52.486;13.432;2023-02-28T11:42:42;5.10;;;2.67;;
16472;SDS011;8347;52.486;13.432;2023-02-28T11:45:45;5.32;;;2.80;;
16472;SDS011;8347;52.486;13.432;2023-02-28T11:48:42;2.72;;;2.22;;
16472;SDS011;8347;52.486;13.432;2023-02-28T11:51:45;4.38;;;2.35;;
16472;SDS011;8347;52.486;13.432;2023-02-28T11:54:48;5.28;;;2.67;;
16472;SDS011;8347;52.486;13.432;2023-02-28T12:01:06;3.60;;;2.28;;
16472;SDS011;8347;52.486;13.432;2023-02-28T12:04:12;4.15;;;2.30;;
16472;SDS011;8347;52.486;13.432;2023-02-28T12:07:15;3.83;;;2.47;;
16472;SDS011;8347;52.486;13.432;2023-02-28T12:10:21;3.75;;;2.10;;
16472;SDS011;8347;52.486;13.432;2023-02-28T12:13:20;9.55;;;5.60;;
16472;SDS011;8347;52.486;13.432;2023-02-28T12:21:59;5.28;;;2.70;;
16472;SDS011;8347;52.486;13.432;2023-02-28T12:24:55;4.03;;;2.20;;
16472;SDS011;8347;52.486;13.432;2023-02-28T12:27:46;6.75;;;3.03;;
16472;SDS011;8347;52.486;13.432;2023-02-28T12:30:34;4.22;;;2.40;;
16472;SDS011;8347;52.486;13.432;2023-02-28T12:33:22;3.78;;;2.60;;
16472;SDS011;8347;52.486;13.432;2023-02-28T12:36:10;4.78;;;2.13;;
16472;SDS011;8347;52.486;13.432;2023-02-28T12:39:02;6.45;;;2.05;;
16472;SDS011;8347;52.486;13.432;2023-02-28T12:42:00;5.68;;;2.00;;
16472;SDS011;8347;52.486;13.432;2023-02-28T12:44:56;6.13;;;2.80;;
16472;SDS011;8347;52.486;13.432;2023-02-28T12:47:48;5.93;;;2.25;;
16472;SDS011;8347;52.486;13.432;2023-02-28T12:50:37;6.20;;;3.22;;
16472;SDS011;8347;52.486;13.432;2023-02-28T12:53:28;4.47;;;2.17;;
16472;SDS011;8347;52.486;13.432;2023-02-28T12:56:24;6.03;;;2.70;;
16472;SDS011;8347;52.486;13.432;2023-02-28T12:59:26;3.55;;;2.20;;
16472;SDS011;8347;52.486;13.432;2023-02-28T13:05:26;4.38;;;2.42;;
16472;SDS011;8347;52.486;13.432;2023-02-28T13:08:20;2.95;;;1.67;;
16472;SDS011;8347;52.486;13.432;2023-02-28T13:11:22;5.00;;;2.47;;
16472;SDS011;8347;52.486;13.432;2023-02-28T13:14:36;4.43;;;2.20;;
16472;SDS011;8347;52.486;13.432;2023-02-28T13:17:23;5.13;;;2.20;;
16472;SDS011;8347;52.486;13.432;2023-02-28T13:20:16;5.38;;;2.63;;
16472;SDS011;8347;52.486;13.432;2023-02-28T13:23:03;3.40;;;2.65;;
16472;SDS011;8347;52.486;13.432;2023-02-28T13:25:51;8.48;;;2.75;;
16472;SDS011;8347;52.486;13.432;2023-02-28T13:31:50;8.15;;;2.25;;
16472;SDS011;8347;52.486;13.432;2023-02-28T13:34:42;4.30;;;2.30;;
16472;SDS011;8347;52.486;13.432;2023-02-28T13:37:35;7.82;;;2.65;;
16472;SDS011;8347;52.486;13.432;2023-02-28T13:40:32;4.20;;;2.30;;
16472;SDS011;8347;52.486;13.432;2023-02-28T13:43:23;3.47;;;2.25;;
16472;SDS011;8347;52.486;13.432;2023-02-28T13:49:37;8.65;;;2.60;;
16472;SDS011;8347;52.486;13.432;2023-02-28T13:52:23;5.05;;;2.60;;
16472;SDS011;8347;52.486;13.432;2023-02-28T13:58:25;8.20;;;2.80;;
16472;SDS011;8347;52.486;13.432;2023-02-28T14:01:48;5.43;;;2.88;;
16472;SDS011;8347;52.486;13.432;2023-02-28T14:07:25;5.82;;;2.78;;
16472;SDS011;8347;52.486;13.432;2023-02-28T14:10:31;4.63;;;2.60;;
16472;SDS011;8347;52.486;13.432;2023-02-28T14:16:13;3.67;;;2.55;;
16472;SDS011;8347;52.486;13.432;2023-02-28T14:19:01;4.82;;;2.55;;
16472;SDS011;8347;52.486;13.432;2023-02-28T14:25:05;3.53;;;1.92;;
16472;SDS011;8347;52.486;13.432;2023-02-28T14:31:01;6.97;;;2.78;;
16472;SDS011;8347;52.486;13.432;2023-02-28T14:33:57;6.57;;;2.92;;
16472;SDS011;8347;52.486;13.432;2023-02-28T14:36:48;3.97;;;2.42;;
16472;SDS011;8347;52.486;13.432;2023-02-28T14:39:36;4.43;;;2.53;;
16472;SDS011;8347;52.486;13.432;2023-02-28T14:42:34;4.13;;;2.72;;
16472;SDS011;8347;52.486;13.432;2023-02-28T14:45:21;4.18;;;2.70;;
16472;SDS011;8347;52.486;13.432;2023-02-28T14:48:09;7.57;;;2.90;;
16472;SDS011;8347;52.486;13.432;2023-02-28T14:50:59;6.38;;;2.92;;
16472;SDS011;8347;52.486;13.432;2023-02-28T14:53:48;3.22;;;2.22;;
16472;SDS011;8347;52.486;13.432;2023-02-28T14:56:36;4.07;;;3.00;;
16472;SDS011;8347;52.486;13.432;2023-02-28T15:02:21;4.32;;;2.75;;
16472;SDS011;8347;52.486;13.432;2023-02-28T15:08:03;5.45;;;2.53;;
16472;SDS011;8347;52.486;13.432;2023-02-28T15:11:00;4.78;;;2.65;;
16472;SDS011;8347;52.486;13.432;2023-02-28T15:13:53;5.75;;;3.22;;
16472;SDS011;8347;52.486;13.432;2023-02-28T15:16:43;6.95;;;2.92;;
16472;SDS011;8347;52.486;13.432;2023-02-28T15:19:36;5.47;;;2.88;;
16472;SDS011;8347;52.486;13.432;2023-02-28T15:22:28;5.97;;;3.22;;
16472;SDS011;8347;52.486;13.432;2023-02-28T15:25:18;6.03;;;3.10;;
16472;SDS011;8347;52.486;13.432;2023-02-28T15:28:05;3.75;;;2.60;;
16472;SDS011;8347;52.486;13.432;2023-02-28T15:30:53;7.75;;;2.85;;
16472;SDS011;8347;52.486;13.432;2023-02-28T15:33:40;4.63;;;3.15;;
16472;SDS011;8347;52.486;13.432;2023-02-28T15:36:38;5.18;;;3.13;;
16472;SDS011;8347;52.486;13.432;2023-02-28T15:39:25;5.47;;;3.03;;
16472;SDS011;8347;52.486;13.432;2023-02-28T15:42:18;4.65;;;3.22;;
16472;SDS011;8347;52.486;13.432;2023-02-28T15:45:06;6.82;;;2.85;;
16472;SDS011;8347;52.486;13.432;2023-02-28T15:48:19;6.25;;;3.20;;
16472;SDS011;8347;52.486;13.432;2023-02-28T15:51:09;5.45;;;2.80;;
16472;SDS011;8347;52.486;13.432;2023-02-28T15:54:01;4.95;;;2.70;;
16472;SDS011;8347;52.486;13.432;2023-02-28T15:56:50;8.18;;;2.75;;
16472;SDS011;8347;52.486;13.432;2023-02-28T15:59:38;6.85;;;3.35;;
16472;SDS011;8347;52.486;13.432;2023-02-28T16:02:31;5.60;;;3.08;;
16472;SDS011;8347;52.486;13.432;2023-02-28T16:05:23;4.28;;;2.67;;
16472;SDS011;8347;52.486;13.432;2023-02-28T16:08:16;6.07;;;3.03;;
16472;SDS011;8347;52.486;13.432;2023-02-28T16:11:03;5.22;;;3.67;;
16472;SDS011;8347;52.486;13.432;2023-02-28T16:13:49;3.50;;;2.22;;
16472;SDS011;8347;52.486;13.432;2023-02-28T16:16:41;6.47;;;2.90;;
16472;SDS011;8347;52.486;13.432;2023-02-28T16:19:28;5.18;;;2.90;;
16472;SDS011;8347;52.486;13.432;2023-02-28T16:22:15;6.95;;;3.13;;
16472;SDS011;8347;52.486;13.432;2023-02-28T16:25:01;4.10;;;2.88;;
16472;SDS011;8347;52.486;13.432;2023-02-28T16:27:50;4.57;;;2.67;;
16472;SDS011;8347;52.486;13.432;2023-02-28T16:30:43;4.18;;;2.50;;
16472;SDS011;8347;52.486;13.432;2023-02-28T16:33:30;5.32;;;2.80;;
16472;SDS011;8347;52.486;13.432;2023-02-28T16:36:18;4.85;;;3.22;;
16472;SDS011;8347;52.486;13.432;2023-02-28T16:39:05;5.18;;;2.70;;
16472;SDS011;8347;52.486;13.432;2023-02-28T16:41:52;4.43;;;2.20;;
16472;SDS011;8347;52.486;13.432;2023-02-28T16:44:38;4.65;;;3.22;;
16472;SDS011;8347;52.486;13.432;2023-02-28T16:47:26;6.35;;;2.90;;
16472;SDS011;8347;52.486;13.432;2023-02-28T16:50:14;5.93;;;3.45;;
16472;SDS011;8347;52.486;13.432;2023-02-28T16:53:02;4.68;;;3.30;;
16472;SDS011;8347;52.486;13.432;2023-02-28T16:55:49;8.05;;;3.08;;
16472;SDS011;8347;52.486;13.432;2023-02-28T16:58:36;5.38;;;3.45;;
16472;SDS011;8347;52.486;13.432;2023-02-28T17:01:23;7.90;;;4.38;;
16472;SDS011;8347;52.486;13.432;2023-02-28T17:04:10;6.35;;;4.07;;
16472;SDS011;8347;52.486;13.432;2023-02-28T17:06:57;5.63;;;4.43;;
16472;SDS011;8347;52.486;13.432;2023-02-28T17:09:43;8.48;;;4.53;;
16472;SDS011;8347;52.486;13.432;2023-02-28T17:12:30;8.00;;;4.25;;
16472;SDS011;8347;52.486;13.432;2023-02-28T17:15:17;8.50;;;4.00;;
16472;SDS011;8347;52.486;13.432;2023-02-28T17:18:04;6.05;;;3.80;;
16472;SDS011;8347;52.486;13.432;2023-02-28T17:20:52;7.82;;;4.28;;
16472;SDS011;8347;52.486;13.432;2023-02-28T17:23:38;9.35;;;5.65;;
16472;SDS011;8347;52.486;13.432;2023-02-28T17:26:25;12.18;;;5.28;;
16472;SDS011;8347;52.486;13.432;2023-02-28T17:29:17;12.95;;;6.07;;
16472;SDS011;8347;52.486;13.432;2023-02-28T17:32:04;14.63;;;6.88;;
16472;SDS011;8347;52.486;13.432;2023-02-28T17:34:51;13.93;;;5.53;;
16472;SDS011;8347;52.486;13.432;2023-02-28T17:37:37;12.63;;;4.70;;
16472;SDS011;8347;52.486;13.432;2023-02-28T17:40:24;9.55;;;4.40;;
16472;SDS011;8347;52.486;13.432;2023-02-28T17:43:10;10.88;;;5.82;;
16472;SDS011;8347;52.486;13.432;2023-02-28T17:45:57;10.85;;;4.82;;
16472;SDS011;8347;52.486;13.432;2023-02-28T17:48:44;12.45;;;4.55;;
16472;SDS011;8347;52.486;13.432;2023-02-28T17:51:30;9.07;;;5.05;;
16472;SDS011;8347;52.486;13.432;2023-02-28T17:54:16;10.27;;;5.28;;
16472;SDS011;8347;52.486;13.432;2023-02-28T17:57:03;8.50;;;5.72;;
16472;SDS011;8347;52.486;13.432;2023-02-28T17:59:49;9.57;;;5.22;;
16472;SDS011;8347;52.486;13.432;2023-02-28T18:02:36;12.90;;;6.22;;
16472;SDS011;8347;52.486;13.432;2023-02-28T18:05:23;8.30;;;5.05;;
16472;SDS011;8347;52.486;13.432;2023-02-28T18:08:10;8.93;;;5.32;;
16472;SDS011;8347;52.486;13.432;2023-02-28T18:10:57;11.93;;;5.63;;
16472;SDS011;8347;52.486;13.432;2023-02-28T18:13:48;10.13;;;4.80;;
16472;SDS011;8347;52.486;13.432;2023-02-28T18:16:36;8.38;;;5.45;;
16472;SDS011;8347;52.486;13.432;2023-02-28T18:19:23;16.23;;;5.60;;